sensor_id;sensor_type;location;lat;lon;timestamp;temperature;humidity
10702;DHT22;5402;50.004;8.246;2023-06-22T00:01:18;24.30;96.00
10702;DHT22;5402;50.004;8.246;2023-06-22T00:03:45;24.30;96.10
10702;DHT22;5402;50.004;8.246;2023-06-22T00:06:12;24.30;96.20
10702;DHT22;5402;50.004;8.246;2023-06-22T00:08:39;24.30;96.30
10702;DHT22;5402;50.004;8.246;2023-06-22T00:11:06;24.30;96.60
10702;DHT22;5402;50.004;8.246;2023-06-22T00:13:34;24.00;96.90
10702;DHT22;5402;50.004;8.246;2023-06-22T00:16:01;23.90;97.20
10702;DHT22;5402;50.004;8.246;2023-06-22T00:18:28;23.90;97.30
10702;DHT22;5402;50.004;8.246;2023-06-22T00:20:56;24.00;97.20
10702;DHT22;5402;50.004;8.246;2023-06-22T00:23:24;24.00;97.30
10702;DHT22;5402;50.004;8.246;2023-06-22T00:25:51;24.00;97.60
10702;DHT22;5402;50.004;8.246;2023-06-22T00:28:18;24.00;97.90
10702;DHT22;5402;50.004;8.246;2023-06-22T00:30:46;24.00;97.80
10702;DHT22;5402;50.004;8.246;2023-06-22T00:33:13;24.00;97.80
10702;DHT22;5402;50.004;8.246;2023-06-22T00:35:41;24.00;97.80
10702;DHT22;5402;50.004;8.246;2023-06-22T00:38:08;24.00;97.80
10702;DHT22;5402;50.004;8.246;2023-06-22T00:40:35;24.00;97.80
10702;DHT22;5402;50.004;8.246;2023-06-22T00:43:02;23.90;98.10
10702;DHT22;5402;50.004;8.246;2023-06-22T00:45:28;23.80;98.80
10702;DHT22;5402;50.004;8.246;2023-06-22T00:47:57;23.60;99.60
10702;DHT22;5402;50.004;8.246;2023-06-22T00:50:26;23.50;99.90
10702;DHT22;5402;50.004;8.246;2023-06-22T00:52:54;23.50;99.90
10702;DHT22;5402;50.004;8.246;2023-06-22T00:55:24;23.30;99.90
10702;DHT22;5402;50.004;8.246;2023-06-22T00:57:51;23.00;99.90
10702;DHT22;5402;50.004;8.246;2023-06-22T01:00:22;22.90;99.90
10702;DHT22;5402;50.004;8.246;2023-06-22T01:02:50;22.50;99.90
10702;DHT22;5402;50.004;8.246;2023-06-22T01:05:19;22.40;99.90
10702;DHT22;5402;50.004;8.246;2023-06-22T01:07:56;22.40;99.90
10702;DHT22;5402;50.004;8.246;2023-06-22T01:10:28;22.50;99.90
10702;DHT22;5402;50.004;8.246;2023-06-22T01:13:01;22.50;99.90
10702;DHT22;5402;50.004;8.246;2023-06-22T01:15:30;22.50;99.90
10702;DHT22;5402;50.004;8.246;2023-06-22T01:17:58;22.50;99.90
10702;DHT22;5402;50.004;8.246;2023-06-22T01:20:28;22.50;99.90
10702;DHT22;5402;50.004;8.246;2023-06-22T01:23:05;22.50;99.90
10702;DHT22;5402;50.004;8.246;2023-06-22T01:25:39;22.50;99.90
10702;DHT22;5402;50.004;8.246;2023-06-22T01:28:23;22.40;99.90
10702;DHT22;5402;50.004;8.246;2023-06-22T01:30:53;22.40;99.90
10702;DHT22;5402;50.004;8.246;2023-06-22T01:33:33;22.20;99.90
10702;DHT22;5402;50.004;8.246;2023-06-22T01:36:01;22.00;99.90
10702;DHT22;5402;50.004;8.246;2023-06-22T01:38:29;21.90;99.90
10702;DHT22;5402;50.004;8.246;2023-06-22T01:40:57;21.90;99.90
10702;DHT22;5402;50.004;8.246;2023-06-22T01:43:26;21.90;99.90
10702;DHT22;5402;50.004;8.246;2023-06-22T01:45:55;21.80;99.90
10702;DHT22;5402;50.004;8.246;2023-06-22T01:48:22;21.70;99.90
10702;DHT22;5402;50.004;8.246;2023-06-22T01:50:51;21.80;99.90
10702;DHT22;5402;50.004;8.246;2023-06-22T01:53:20;21.80;99.90
10702;DHT22;5402;50.004;8.246;2023-06-22T01:55:46;21.90;99.90
10702;DHT22;5402;50.004;8.246;2023-06-22T01:58:13;21.80;99.90
10702;DHT22;5402;50.004;8.246;2023-06-22T02:00:44;21.90;99.90
10702;DHT22;5402;50.004;8.246;2023-06-22T02:03:18;21.80;99.90
10702;DHT22;5402;50.004;8.246;2023-06-22T02:05:49;21.90;99.90
10702;DHT22;5402;50.004;8.246;2023-06-22T02:08:20;21.90;99.90
10702;DHT22;5402;50.004;8.246;2023-06-22T02:10:48;22.00;99.90
10702;DHT22;5402;50.004;8.246;2023-06-22T02:13:18;22.00;99.90
10702;DHT22;5402;50.004;8.246;2023-06-22T02:15:46;22.00;99.90
10702;DHT22;5402;50.004;8.246;2023-06-22T02:18:15;22.10;99.90
10702;DHT22;5402;50.004;8.246;2023-06-22T02:20:42;22.10;99.90
10702;DHT22;5402;50.004;8.246;2023-06-22T02:23:09;22.10;99.90
10702;DHT22;5402;50.004;8.246;2023-06-22T02:25:36;22.00;99.90
10702;DHT22;5402;50.004;8.246;2023-06-22T02:28:03;22.10;99.90
10702;DHT22;5402;50.004;8.246;2023-06-22T02:30:32;21.90;99.90
10702;DHT22;5402;50.004;8.246;2023-06-22T02:32:58;21.70;99.90
10702;DHT22;5402;50.004;8.246;2023-06-22T02:35:28;21.70;99.90
10702;DHT22;5402;50.004;8.246;2023-06-22T02:37:56;21.60;99.90
10702;DHT22;5402;50.004;8.246;2023-06-22T02:40:23;21.60;99.90
10702;DHT22;5402;50.004;8.246;2023-06-22T02:42:50;21.50;99.90
10702;DHT22;5402;50.004;8.246;2023-06-22T02:45:17;21.60;99.90
10702;DHT22;5402;50.004;8.246;2023-06-22T02:47:44;21.60;99.90
10702;DHT22;5402;50.004;8.246;2023-06-22T02:50:13;21.50;99.90
10702;DHT22;5402;50.004;8.246;2023-06-22T02:52:41;21.60;99.90
10702;DHT22;5402;50.004;8.246;2023-06-22T02:55:08;21.60;99.90
10702;DHT22;5402;50.004;8.246;2023-06-22T02:57:35;21.60;99.90
10702;DHT22;5402;50.004;8.246;2023-06-22T03:00:04;21.50;99.90
10702;DHT22;5402;50.004;8.246;2023-06-22T03:02:42;21.50;99.90
10702;DHT22;5402;50.004;8.246;2023-06-22T03:05:08;21.50;99.90
10702;DHT22;5402;50.004;8.246;2023-06-22T03:07:41;21.60;99.90
10702;DHT22;5402;50.004;8.246;2023-06-22T03:10:09;21.60;99.90
10702;DHT22;5402;50.004;8.246;2023-06-22T03:12:36;21.60;99.90
10702;DHT22;5402;50.004;8.246;2023-06-22T03:15:04;21.70;99.90
10702;DHT22;5402;50.004;8.246;2023-06-22T03:17:31;21.70;99.90
10702;DHT22;5402;50.004;8.246;2023-06-22T03:19:58;21.80;99.90
10702;DHT22;5402;50.004;8.246;2023-06-22T03:22:25;21.80;99.90
10702;DHT22;5402;50.004;8.246;2023-06-22T03:24:53;21.80;99.90
10702;DHT22;5402;50.004;8.246;2023-06-22T03:27:20;21.80;99.90
10702;DHT22;5402;50.004;8.246;2023-06-22T03:29:46;21.90;99.90
10702;DHT22;5402;50.004;8.246;2023-06-22T03:32:13;21.90;99.90
10702;DHT22;5402;50.004;8.246;2023-06-22T03:34:40;21.90;99.90
10702;DHT22;5402;50.004;8.246;2023-06-22T03:37:12;21.80;99.90
10702;DHT22;5402;50.004;8.246;2023-06-22T03:39:39;22.00;99.90
10702;DHT22;5402;50.004;8.246;2023-06-22T03:42:07;22.00;99.90
10702;DHT22;5402;50.004;8.246;2023-06-22T03:44:34;22.00;99.90
10702;DHT22;5402;50.004;8.246;2023-06-22T03:47:01;22.10;99.90
10702;DHT22;5402;50.004;8.246;2023-06-22T03:49:28;22.00;99.90
10702;DHT22;5402;50.004;8.246;2023-06-22T03:51:55;22.00;99.90
10702;DHT22;5402;50.004;8.246;2023-06-22T03:54:22;22.00;99.90
10702;DHT22;5402;50.004;8.246;2023-06-22T03:56:49;22.00;99.90
10702;DHT22;5402;50.004;8.246;2023-06-22T03:59:17;22.10;99.90
10702;DHT22;5402;50.004;8.246;2023-06-22T04:01:44;22.10;99.90
10702;DHT22;5402;50.004;8.246;2023-06-22T04:04:11;22.10;99.90
10702;DHT22;5402;50.004;8.246;2023-06-22T04:06:40;22.10;99.90
10702;DHT22;5402;50.004;8.246;2023-06-22T04:09:06;22.10;99.90
10702;DHT22;5402;50.004;8.246;2023-06-22T04:11:33;22.10;99.90
10702;DHT22;5402;50.004;8.246;2023-06-22T04:14:00;22.10;99.90
10702;DHT22;5402;50.004;8.246;2023-06-22T04:16:28;22.10;99.90
10702;DHT22;5402;50.004;8.246;2023-06-22T04:18:55;22.10;99.90
10702;DHT22;5402;50.004;8.246;2023-06-22T04:21:21;22.10;99.90
10702;DHT22;5402;50.004;8.246;2023-06-22T04:23:48;22.10;99.90
10702;DHT22;5402;50.004;8.246;2023-06-22T04:26:15;22.00;99.90
10702;DHT22;5402;50.004;8.246;2023-06-22T04:28:42;22.00;99.90
10702;DHT22;5402;50.004;8.246;2023-06-22T04:31:08;22.00;99.90
10702;DHT22;5402;50.004;8.246;2023-06-22T04:33:37;22.10;99.90
10702;DHT22;5402;50.004;8.246;2023-06-22T04:36:06;22.10;99.90
10702;DHT22;5402;50.004;8.246;2023-06-22T04:38:32;22.10;99.90
10702;DHT22;5402;50.004;8.246;2023-06-22T04:40:59;22.10;99.90
10702;DHT22;5402;50.004;8.246;2023-06-22T04:43:27;22.10;99.90
10702;DHT22;5402;50.004;8.246;2023-06-22T04:45:56;22.10;99.90
10702;DHT22;5402;50.004;8.246;2023-06-22T04:48:29;22.20;99.90
10702;DHT22;5402;50.004;8.246;2023-06-22T04:50:59;22.20;99.90
10702;DHT22;5402;50.004;8.246;2023-06-22T04:53:29;22.20;99.90
10702;DHT22;5402;50.004;8.246;2023-06-22T04:55:55;22.30;99.90
10702;DHT22;5402;50.004;8.246;2023-06-22T04:58:22;22.20;99.90
10702;DHT22;5402;50.004;8.246;2023-06-22T05:00:52;22.20;99.90
10702;DHT22;5402;50.004;8.246;2023-06-22T05:03:22;22.20;99.90
10702;DHT22;5402;50.004;8.246;2023-06-22T05:05:51;22.20;99.90
10702;DHT22;5402;50.004;8.246;2023-06-22T05:08:19;22.20;99.90
10702;DHT22;5402;50.004;8.246;2023-06-22T05:10:46;22.20;99.90
10702;DHT22;5402;50.004;8.246;2023-06-22T05:13:13;22.30;99.90
10702;DHT22;5402;50.004;8.246;2023-06-22T05:15:40;22.20;99.90
10702;DHT22;5402;50.004;8.246;2023-06-22T05:18:06;22.30;99.90
10702;DHT22;5402;50.004;8.246;2023-06-22T05:20:33;22.30;99.90
10702;DHT22;5402;50.004;8.246;2023-06-22T05:23:01;22.30;99.90
10702;DHT22;5402;50.004;8.246;2023-06-22T05:25:29;22.40;99.90
10702;DHT22;5402;50.004;8.246;2023-06-22T05:27:58;22.50;99.90
10702;DHT22;5402;50.004;8.246;2023-06-22T05:30:24;22.70;99.90
10702;DHT22;5402;50.004;8.246;2023-06-22T05:32:51;22.70;99.90
10702;DHT22;5402;50.004;8.246;2023-06-22T05:35:20;22.80;99.90
10702;DHT22;5402;50.004;8.246;2023-06-22T05:37:47;23.00;99.90
10702;DHT22;5402;50.004;8.246;2023-06-22T05:40:14;22.90;99.90
10702;DHT22;5402;50.004;8.246;2023-06-22T05:42:42;23.00;99.90
10702;DHT22;5402;50.004;8.246;2023-06-22T05:45:09;23.00;99.90
10702;DHT22;5402;50.004;8.246;2023-06-22T05:47:36;23.10;99.90
10702;DHT22;5402;50.004;8.246;2023-06-22T05:50:03;23.20;99.90
10702;DHT22;5402;50.004;8.246;2023-06-22T05:52:32;23.20;99.90
10702;DHT22;5402;50.004;8.246;2023-06-22T05:54:59;23.20;99.90
10702;DHT22;5402;50.004;8.246;2023-06-22T05:57:25;23.20;99.90
10702;DHT22;5402;50.004;8.246;2023-06-22T05:59:53;23.30;99.90
10702;DHT22;5402;50.004;8.246;2023-06-22T06:02:20;23.40;99.90
10702;DHT22;5402;50.004;8.246;2023-06-22T06:04:47;23.40;99.90
10702;DHT22;5402;50.004;8.246;2023-06-22T06:07:16;23.50;99.90
10702;DHT22;5402;50.004;8.246;2023-06-22T06:09:43;23.60;99.90
10702;DHT22;5402;50.004;8.246;2023-06-22T06:12:10;23.60;99.90
10702;DHT22;5402;50.004;8.246;2023-06-22T06:14:36;23.70;99.90
10702;DHT22;5402;50.004;8.246;2023-06-22T06:17:04;23.70;99.90
10702;DHT22;5402;50.004;8.246;2023-06-22T06:19:31;23.80;99.90
10702;DHT22;5402;50.004;8.246;2023-06-22T06:21:58;23.90;99.90
10702;DHT22;5402;50.004;8.246;2023-06-22T06:24:25;24.00;99.90
10702;DHT22;5402;50.004;8.246;2023-06-22T06:26:52;24.10;99.90
10702;DHT22;5402;50.004;8.246;2023-06-22T06:29:19;24.20;99.90
10702;DHT22;5402;50.004;8.246;2023-06-22T06:31:46;24.20;99.90
10702;DHT22;5402;50.004;8.246;2023-06-22T06:34:14;24.20;99.90
10702;DHT22;5402;50.004;8.246;2023-06-22T06:36:41;24.20;99.90
10702;DHT22;5402;50.004;8.246;2023-06-22T06:39:08;24.20;99.90
10702;DHT22;5402;50.004;8.246;2023-06-22T06:41:35;24.20;99.90
10702;DHT22;5402;50.004;8.246;2023-06-22T06:44:02;24.30;99.90
10702;DHT22;5402;50.004;8.246;2023-06-22T06:46:28;24.30;99.90
10702;DHT22;5402;50.004;8.246;2023-06-22T06:48:55;24.30;99.90
10702;DHT22;5402;50.004;8.246;2023-06-22T06:51:24;24.40;99.90
10702;DHT22;5402;50.004;8.246;2023-06-22T06:53:52;24.40;99.90
10702;DHT22;5402;50.004;8.246;2023-06-22T06:56:18;24.50;99.90
10702;DHT22;5402;50.004;8.246;2023-06-22T06:58:45;24.50;99.90
10702;DHT22;5402;50.004;8.246;2023-06-22T07:01:12;24.70;99.90
10702;DHT22;5402;50.004;8.246;2023-06-22T07:03:39;24.70;99.90
10702;DHT22;5402;50.004;8.246;2023-06-22T07:06:05;24.80;99.90
10702;DHT22;5402;50.004;8.246;2023-06-22T07:08:33;24.80;99.90
10702;DHT22;5402;50.004;8.246;2023-06-22T07:11:00;24.80;99.90
10702;DHT22;5402;50.004;8.246;2023-06-22T07:13:27;24.90;99.90
10702;DHT22;5402;50.004;8.246;2023-06-22T07:15:54;25.00;99.90
10702;DHT22;5402;50.004;8.246;2023-06-22T07:18:21;25.00;99.90
10702;DHT22;5402;50.004;8.246;2023-06-22T07:20:48;25.10;99.90
10702;DHT22;5402;50.004;8.246;2023-06-22T07:23:14;25.30;99.90
10702;DHT22;5402;50.004;8.246;2023-06-22T07:25:42;25.30;99.90
10702;DHT22;5402;50.004;8.246;2023-06-22T07:28:09;25.30;99.90
10702;DHT22;5402;50.004;8.246;2023-06-22T07:30:36;25.40;99.90
10702;DHT22;5402;50.004;8.246;2023-06-22T07:33:03;25.50;99.90
10702;DHT22;5402;50.004;8.246;2023-06-22T07:35:33;25.60;99.90
10702;DHT22;5402;50.004;8.246;2023-06-22T07:38:00;25.60;99.90
10702;DHT22;5402;50.004;8.246;2023-06-22T07:40:27;25.70;99.90
10702;DHT22;5402;50.004;8.246;2023-06-22T07:42:55;25.80;99.90
10702;DHT22;5402;50.004;8.246;2023-06-22T07:45:22;25.90;99.90
10702;DHT22;5402;50.004;8.246;2023-06-22T07:47:49;26.00;99.90
10702;DHT22;5402;50.004;8.246;2023-06-22T07:50:16;26.00;99.90
10702;DHT22;5402;50.004;8.246;2023-06-22T07:52:43;26.10;99.90
10702;DHT22;5402;50.004;8.246;2023-06-22T07:55:09;26.20;99.90
10702;DHT22;5402;50.004;8.246;2023-06-22T07:57:36;26.30;99.90
10702;DHT22;5402;50.004;8.246;2023-06-22T08:00:05;26.30;99.90
10702;DHT22;5402;50.004;8.246;2023-06-22T08:02:38;26.50;99.90
10702;DHT22;5402;50.004;8.246;2023-06-22T08:05:06;26.50;99.90
10702;DHT22;5402;50.004;8.246;2023-06-22T08:07:33;26.70;99.90
10702;DHT22;5402;50.004;8.246;2023-06-22T08:10:01;26.90;99.90
10702;DHT22;5402;50.004;8.246;2023-06-22T08:12:27;27.10;99.90
10702;DHT22;5402;50.004;8.246;2023-06-22T08:14:54;27.20;99.90
10702;DHT22;5402;50.004;8.246;2023-06-22T08:17:23;27.30;99.90
10702;DHT22;5402;50.004;8.246;2023-06-22T08:19:50;27.30;99.90
10702;DHT22;5402;50.004;8.246;2023-06-22T08:22:17;27.30;99.90
10702;DHT22;5402;50.004;8.246;2023-06-22T08:24:44;27.40;99.90
10702;DHT22;5402;50.004;8.246;2023-06-22T08:27:12;27.40;99.90
10702;DHT22;5402;50.004;8.246;2023-06-22T08:29:40;27.40;99.90
10702;DHT22;5402;50.004;8.246;2023-06-22T08:32:08;27.60;99.90
10702;DHT22;5402;50.004;8.246;2023-06-22T08:34:36;27.60;99.90
10702;DHT22;5402;50.004;8.246;2023-06-22T08:37:07;27.70;99.90
10702;DHT22;5402;50.004;8.246;2023-06-22T08:39:34;27.80;99.90
10702;DHT22;5402;50.004;8.246;2023-06-22T08:42:01;28.10;99.90
10702;DHT22;5402;50.004;8.246;2023-06-22T08:44:27;28.30;99.60
10702;DHT22;5402;50.004;8.246;2023-06-22T08:46:54;28.30;99.40
10702;DHT22;5402;50.004;8.246;2023-06-22T08:49:21;28.30;99.20
10702;DHT22;5402;50.004;8.246;2023-06-22T08:51:49;28.40;99.30
10702;DHT22;5402;50.004;8.246;2023-06-22T08:54:18;28.40;98.90
10702;DHT22;5402;50.004;8.246;2023-06-22T08:56:45;28.50;99.00
10702;DHT22;5402;50.004;8.246;2023-06-22T08:59:12;28.40;99.20
10702;DHT22;5402;50.004;8.246;2023-06-22T09:01:39;28.50;98.80
10702;DHT22;5402;50.004;8.246;2023-06-22T09:04:05;28.30;98.80
10702;DHT22;5402;50.004;8.246;2023-06-22T09:06:35;28.40;99.00
10702;DHT22;5402;50.004;8.246;2023-06-22T09:09:08;28.70;98.70
10702;DHT22;5402;50.004;8.246;2023-06-22T09:11:34;28.80;98.70
10702;DHT22;5402;50.004;8.246;2023-06-22T09:14:01;29.30;98.50
10702;DHT22;5402;50.004;8.246;2023-06-22T09:16:29;29.40;97.90
10702;DHT22;5402;50.004;8.246;2023-06-22T09:18:55;29.30;97.70
10702;DHT22;5402;50.004;8.246;2023-06-22T09:21:23;29.00;98.10
10702;DHT22;5402;50.004;8.246;2023-06-22T09:23:50;28.90;98.00
10702;DHT22;5402;50.004;8.246;2023-06-22T09:26:19;28.80;98.40
10702;DHT22;5402;50.004;8.246;2023-06-22T09:28:46;29.00;97.80
10702;DHT22;5402;50.004;8.246;2023-06-22T09:31:13;29.00;97.90
10702;DHT22;5402;50.004;8.246;2023-06-22T09:33:41;29.30;97.30
10702;DHT22;5402;50.004;8.246;2023-06-22T09:36:09;29.20;97.00
10702;DHT22;5402;50.004;8.246;2023-06-22T09:38:37;29.10;97.70
10702;DHT22;5402;50.004;8.246;2023-06-22T09:41:05;29.20;97.70
10702;DHT22;5402;50.004;8.246;2023-06-22T09:43:33;29.10;97.50
10702;DHT22;5402;50.004;8.246;2023-06-22T09:46:01;29.00;97.30
10702;DHT22;5402;50.004;8.246;2023-06-22T09:48:29;28.90;97.70
10702;DHT22;5402;50.004;8.246;2023-06-22T09:50:56;28.90;97.70
10702;DHT22;5402;50.004;8.246;2023-06-22T09:53:23;29.00;97.80
10702;DHT22;5402;50.004;8.246;2023-06-22T09:55:50;29.20;97.00
10702;DHT22;5402;50.004;8.246;2023-06-22T09:58:17;29.00;97.20
10702;DHT22;5402;50.004;8.246;2023-06-22T10:00:45;28.90;97.40
10702;DHT22;5402;50.004;8.246;2023-06-22T10:03:11;29.10;97.60
10702;DHT22;5402;50.004;8.246;2023-06-22T10:05:38;29.30;97.30
10702;DHT22;5402;50.004;8.246;2023-06-22T10:08:05;29.40;96.90
10702;DHT22;5402;50.004;8.246;2023-06-22T10:10:33;29.50;96.80
10702;DHT22;5402;50.004;8.246;2023-06-22T10:13:08;29.80;96.60
10702;DHT22;5402;50.004;8.246;2023-06-22T10:15:36;30.00;96.10
10702;DHT22;5402;50.004;8.246;2023-06-22T10:18:04;30.00;96.10
10702;DHT22;5402;50.004;8.246;2023-06-22T10:20:31;30.10;95.80
10702;DHT22;5402;50.004;8.246;2023-06-22T10:22:57;30.20;95.70
10702;DHT22;5402;50.004;8.246;2023-06-22T10:25:24;30.30;95.20
10702;DHT22;5402;50.004;8.246;2023-06-22T10:27:51;30.50;94.70
10702;DHT22;5402;50.004;8.246;2023-06-22T10:30:18;30.60;95.20
10702;DHT22;5402;50.004;8.246;2023-06-22T10:32:44;30.80;94.40
10702;DHT22;5402;50.004;8.246;2023-06-22T10:35:13;30.80;94.00
10702;DHT22;5402;50.004;8.246;2023-06-22T10:37:42;30.80;93.80
10702;DHT22;5402;50.004;8.246;2023-06-22T10:40:10;30.80;94.00
10702;DHT22;5402;50.004;8.246;2023-06-22T10:42:37;30.80;94.10
10702;DHT22;5402;50.004;8.246;2023-06-22T10:45:04;31.00;94.20
10702;DHT22;5402;50.004;8.246;2023-06-22T10:47:32;31.00;93.50
10702;DHT22;5402;50.004;8.246;2023-06-22T10:49:59;31.10;93.90
10702;DHT22;5402;50.004;8.246;2023-06-22T10:52:27;30.80;93.40
10702;DHT22;5402;50.004;8.246;2023-06-22T10:54:54;30.90;93.70
10702;DHT22;5402;50.004;8.246;2023-06-22T10:57:21;31.10;93.00
10702;DHT22;5402;50.004;8.246;2023-06-22T10:59:49;31.20;92.10
10702;DHT22;5402;50.004;8.246;2023-06-22T11:02:16;31.20;91.80
10702;DHT22;5402;50.004;8.246;2023-06-22T11:04:42;31.50;91.90
10702;DHT22;5402;50.004;8.246;2023-06-22T11:07:09;31.50;91.90
10702;DHT22;5402;50.004;8.246;2023-06-22T11:09:37;31.50;92.00
10702;DHT22;5402;50.004;8.246;2023-06-22T11:12:06;31.50;91.50
10702;DHT22;5402;50.004;8.246;2023-06-22T11:14:34;31.70;92.00
10702;DHT22;5402;50.004;8.246;2023-06-22T11:17:01;31.90;92.00
10702;DHT22;5402;50.004;8.246;2023-06-22T11:19:28;31.90;91.60
10702;DHT22;5402;50.004;8.246;2023-06-22T11:21:54;31.90;91.50
10702;DHT22;5402;50.004;8.246;2023-06-22T11:24:21;31.90;91.40
10702;DHT22;5402;50.004;8.246;2023-06-22T11:26:50;32.00;91.80
10702;DHT22;5402;50.004;8.246;2023-06-22T11:29:16;32.30;91.90
10702;DHT22;5402;50.004;8.246;2023-06-22T11:31:43;32.40;91.50
10702;DHT22;5402;50.004;8.246;2023-06-22T11:34:10;32.60;90.90
10702;DHT22;5402;50.004;8.246;2023-06-22T11:36:37;32.60;91.30
10702;DHT22;5402;50.004;8.246;2023-06-22T11:39:04;32.50;91.60
10702;DHT22;5402;50.004;8.246;2023-06-22T11:41:31;32.50;91.30
10702;DHT22;5402;50.004;8.246;2023-06-22T11:43:59;32.90;91.30
10702;DHT22;5402;50.004;8.246;2023-06-22T11:46:26;32.90;90.50
10702;DHT22;5402;50.004;8.246;2023-06-22T11:48:53;32.60;90.60
10702;DHT22;5402;50.004;8.246;2023-06-22T11:51:20;32.60;90.70
10702;DHT22;5402;50.004;8.246;2023-06-22T11:53:48;32.80;90.90
10702;DHT22;5402;50.004;8.246;2023-06-22T11:56:14;33.00;90.80
10702;DHT22;5402;50.004;8.246;2023-06-22T11:58:41;33.00;90.30
10702;DHT22;5402;50.004;8.246;2023-06-22T12:01:09;33.20;90.30
10702;DHT22;5402;50.004;8.246;2023-06-22T12:03:36;33.20;89.90
10702;DHT22;5402;50.004;8.246;2023-06-22T12:06:02;33.10;89.70
10702;DHT22;5402;50.004;8.246;2023-06-22T12:08:29;33.30;90.50
10702;DHT22;5402;50.004;8.246;2023-06-22T12:10:57;33.30;90.00
10702;DHT22;5402;50.004;8.246;2023-06-22T12:13:23;33.10;90.00
10702;DHT22;5402;50.004;8.246;2023-06-22T12:15:50;33.10;90.90
10702;DHT22;5402;50.004;8.246;2023-06-22T12:18:19;33.40;90.00
10702;DHT22;5402;50.004;8.246;2023-06-22T12:20:46;33.40;89.80
10702;DHT22;5402;50.004;8.246;2023-06-22T12:23:15;33.60;90.30
10702;DHT22;5402;50.004;8.246;2023-06-22T12:25:42;33.80;90.40
10702;DHT22;5402;50.004;8.246;2023-06-22T12:28:09;33.50;89.70
10702;DHT22;5402;50.004;8.246;2023-06-22T12:30:36;33.50;89.70
10702;DHT22;5402;50.004;8.246;2023-06-22T12:33:03;33.60;89.30
10702;DHT22;5402;50.004;8.246;2023-06-22T12:35:31;33.70;89.90
10702;DHT22;5402;50.004;8.246;2023-06-22T12:37:58;33.70;89.30
10702;DHT22;5402;50.004;8.246;2023-06-22T12:40:24;33.60;89.70
10702;DHT22;5402;50.004;8.246;2023-06-22T12:42:51;33.40;89.00
10702;DHT22;5402;50.004;8.246;2023-06-22T12:45:18;33.50;90.00
10702;DHT22;5402;50.004;8.246;2023-06-22T12:47:47;33.70;90.70
10702;DHT22;5402;50.004;8.246;2023-06-22T12:50:15;33.70;89.00
10702;DHT22;5402;50.004;8.246;2023-06-22T12:52:43;33.60;90.20
10702;DHT22;5402;50.004;8.246;2023-06-22T12:55:10;33.50;89.20
10702;DHT22;5402;50.004;8.246;2023-06-22T12:57:37;33.30;90.30
10702;DHT22;5402;50.004;8.246;2023-06-22T13:00:05;33.10;90.20
10702;DHT22;5402;50.004;8.246;2023-06-22T13:02:33;33.00;90.20
10702;DHT22;5402;50.004;8.246;2023-06-22T13:05:01;33.00;90.60
10702;DHT22;5402;50.004;8.246;2023-06-22T13:07:30;33.10;90.50
10702;DHT22;5402;50.004;8.246;2023-06-22T13:09:58;33.30;90.40
10702;DHT22;5402;50.004;8.246;2023-06-22T13:12:25;33.50;90.90
10702;DHT22;5402;50.004;8.246;2023-06-22T13:14:52;33.50;90.10
10702;DHT22;5402;50.004;8.246;2023-06-22T13:17:19;33.60;89.70
10702;DHT22;5402;50.004;8.246;2023-06-22T13:19:45;33.50;90.20
10702;DHT22;5402;50.004;8.246;2023-06-22T13:22:26;33.40;90.00
10702;DHT22;5402;50.004;8.246;2023-06-22T13:24:54;33.60;90.50
10702;DHT22;5402;50.004;8.246;2023-06-22T13:27:23;33.70;89.70
10702;DHT22;5402;50.004;8.246;2023-06-22T13:29:51;33.70;90.00
10702;DHT22;5402;50.004;8.246;2023-06-22T13:32:18;33.50;90.00
10702;DHT22;5402;50.004;8.246;2023-06-22T13:34:45;33.60;90.10
10702;DHT22;5402;50.004;8.246;2023-06-22T13:37:11;33.30;90.80
10702;DHT22;5402;50.004;8.246;2023-06-22T13:39:38;33.10;90.60
10702;DHT22;5402;50.004;8.246;2023-06-22T13:42:06;33.10;90.10
10702;DHT22;5402;50.004;8.246;2023-06-22T13:44:36;33.00;90.30
10702;DHT22;5402;50.004;8.246;2023-06-22T13:47:03;33.20;90.30
10702;DHT22;5402;50.004;8.246;2023-06-22T13:49:30;33.30;90.60
10702;DHT22;5402;50.004;8.246;2023-06-22T13:51:57;33.50;90.30
10702;DHT22;5402;50.004;8.246;2023-06-22T13:54:24;33.70;88.80
10702;DHT22;5402;50.004;8.246;2023-06-22T13:56:50;33.80;87.40
10702;DHT22;5402;50.004;8.246;2023-06-22T13:59:17;34.00;86.80
10702;DHT22;5402;50.004;8.246;2023-06-22T14:01:46;34.00;84.30
10702;DHT22;5402;50.004;8.246;2023-06-22T14:04:13;33.90;84.70
10702;DHT22;5402;50.004;8.246;2023-06-22T14:06:40;33.70;82.30
10702;DHT22;5402;50.004;8.246;2023-06-22T14:09:06;33.50;83.10
10702;DHT22;5402;50.004;8.246;2023-06-22T14:11:33;33.10;82.50
10702;DHT22;5402;50.004;8.246;2023-06-22T14:14:00;33.00;83.20
10702;DHT22;5402;50.004;8.246;2023-06-22T14:16:26;32.50;84.50
10702;DHT22;5402;50.004;8.246;2023-06-22T14:18:54;32.40;84.80
10702;DHT22;5402;50.004;8.246;2023-06-22T14:21:21;32.50;85.30
10702;DHT22;5402;50.004;8.246;2023-06-22T14:23:48;32.10;85.30
10702;DHT22;5402;50.004;8.246;2023-06-22T14:26:15;31.90;86.30
10702;DHT22;5402;50.004;8.246;2023-06-22T14:28:44;31.70;87.20
10702;DHT22;5402;50.004;8.246;2023-06-22T14:31:14;31.60;87.70
10702;DHT22;5402;50.004;8.246;2023-06-22T14:33:40;31.60;88.00
10702;DHT22;5402;50.004;8.246;2023-06-22T14:36:09;31.70;88.00
10702;DHT22;5402;50.004;8.246;2023-06-22T14:38:37;31.60;88.60
10702;DHT22;5402;50.004;8.246;2023-06-22T14:41:03;31.70;89.30
10702;DHT22;5402;50.004;8.246;2023-06-22T14:43:30;31.80;88.60
10702;DHT22;5402;50.004;8.246;2023-06-22T14:45:58;31.80;89.00
10702;DHT22;5402;50.004;8.246;2023-06-22T14:48:26;31.60;89.50
10702;DHT22;5402;50.004;8.246;2023-06-22T14:50:54;31.60;90.10
10702;DHT22;5402;50.004;8.246;2023-06-22T14:53:22;31.50;89.80
10702;DHT22;5402;50.004;8.246;2023-06-22T14:55:49;31.60;89.70
10702;DHT22;5402;50.004;8.246;2023-06-22T14:58:16;31.70;89.70
10702;DHT22;5402;50.004;8.246;2023-06-22T15:00:43;31.70;89.90
10702;DHT22;5402;50.004;8.246;2023-06-22T15:03:09;31.50;90.10
10702;DHT22;5402;50.004;8.246;2023-06-22T15:05:42;31.30;90.10
10702;DHT22;5402;50.004;8.246;2023-06-22T15:08:09;31.30;90.30
10702;DHT22;5402;50.004;8.246;2023-06-22T15:10:37;31.30;90.40
10702;DHT22;5402;50.004;8.246;2023-06-22T15:13:04;31.30;90.60
10702;DHT22;5402;50.004;8.246;2023-06-22T15:15:30;31.20;90.60
10702;DHT22;5402;50.004;8.246;2023-06-22T15:17:57;31.20;90.40
10702;DHT22;5402;50.004;8.246;2023-06-22T15:20:26;31.40;89.70
10702;DHT22;5402;50.004;8.246;2023-06-22T15:22:52;31.50;87.60
10702;DHT22;5402;50.004;8.246;2023-06-22T15:25:20;31.70;85.10
10702;DHT22;5402;50.004;8.246;2023-06-22T15:27:48;31.70;85.00
10702;DHT22;5402;50.004;8.246;2023-06-22T15:30:15;31.70;84.20
10702;DHT22;5402;50.004;8.246;2023-06-22T15:32:43;31.50;85.40
10702;DHT22;5402;50.004;8.246;2023-06-22T15:35:10;31.50;85.40
10702;DHT22;5402;50.004;8.246;2023-06-22T15:37:37;31.40;86.80
10702;DHT22;5402;50.004;8.246;2023-06-22T15:40:07;31.20;88.60
10702;DHT22;5402;50.004;8.246;2023-06-22T15:42:34;31.00;90.10
10702;DHT22;5402;50.004;8.246;2023-06-22T15:45:04;30.80;90.90
10702;DHT22;5402;50.004;8.246;2023-06-22T15:47:31;30.60;90.90